Time;durP1;ratioP1;P1;durP2;ratioP2;P2;SDS_P1;SDS_P2;PMS_P1;PMS_P2;Temp;Humidity;BMP_temperature;BMP_pressure;BME280_temperature;BME280_humidity;BME280_pressure;Samples;Min_cycle;Max_cycle;Signal;HPM_P1;HPM_P2
2022/06/08 00:01:05;;;;;;;1.90;1.70;;;;;;;15.12;100.00;99033.88;4707865;30;20265;-90
2022/06/08 00:03:39;;;;;;;1.90;1.80;;;;;;;15.17;100.00;99025.81;4722176;30;20244;-90
2022/06/08 00:06:06;;;;;;;1.70;1.60;;;;;;;15.19;100.00;99034.47;4723076;30;20233;-90
2022/06/08 00:08:33;;;;;;;1.93;1.70;;;;;;;15.15;100.00;99037.94;4728476;30;20327;-90
2022/06/08 00:11:00;;;;;;;1.93;1.83;;;;;;;15.20;100.00;99033.38;4707719;30;20233;-90
2022/06/08 00:13:27;;;;;;;1.97;1.87;;;;;;;15.17;100.00;99020.41;4703248;30;20340;-90
2022/06/08 00:15:54;;;;;;;2.23;1.87;;;;;;;15.15;100.00;99027.97;4723619;30;20245;-90
2022/06/08 00:18:21;;;;;;;2.27;2.17;;;;;;;15.08;100.00;99027.38;4728409;30;20240;-90
2022/06/08 00:20:48;;;;;;;2.30;2.17;;;;;;;15.10;100.00;99027.13;4701442;30;20241;-91
2022/06/08 00:23:15;;;;;;;2.13;2.03;;;;;;;15.10;100.00;99019.84;4721974;30;20684;-90
2022/06/08 00:25:42;;;;;;;2.50;2.30;;;;;;;15.13;100.00;99026.59;4725984;30;20429;-90
2022/06/08 00:28:09;;;;;;;2.20;2.00;;;;;;;15.12;100.00;99028.47;4727763;30;20241;-90
2022/06/08 00:30:36;;;;;;;2.50;2.40;;;;;;;15.04;100.00;99031.69;4721688;30;20267;-90
2022/06/08 00:33:04;;;;;;;2.33;2.10;;;;;;;15.09;100.00;99022.81;4720642;30;20240;-92
2022/06/08 00:35:31;;;;;;;2.70;2.50;;;;;;;15.13;100.00;99029.28;4713284;30;20245;-91
2022/06/08 00:37:57;;;;;;;2.67;2.47;;;;;;;15.16;100.00;99026.91;4723524;30;20245;-90
2022/06/08 00:40:36;;;;;;;2.67;2.47;;;;;;;15.13;100.00;99019.31;4727779;30;20245;-90
2022/06/08 00:43:04;;;;;;;2.50;2.30;;;;;;;15.21;100.00;99018.78;4719423;30;20255;-91
2022/06/08 00:45:31;;;;;;;2.70;2.50;;;;;;;15.21;100.00;99021.50;4725174;30;20710;-90
2022/06/08 00:48:01;;;;;;;3.10;2.57;;;;;;;15.17;100.00;99016.88;4726588;30;21109;-90
2022/06/08 00:50:48;;;;;;;3.17;2.40;;;;;;;15.10;100.00;99010.94;4721395;30;20233;-90
2022/06/08 00:53:17;;;;;;;2.90;2.70;;;;;;;15.14;100.00;99022.81;4720708;30;20248;-91
2022/06/08 00:55:45;;;;;;;2.30;2.20;;;;;;;15.12;100.00;99019.56;4720464;30;20381;-90
2022/06/08 00:58:15;;;;;;;2.30;2.20;;;;;;;15.06;100.00;99012.53;4732210;30;20293;-90
2022/06/08 01:00:42;;;;;;;2.60;2.40;;;;;;;15.06;100.00;99010.66;4715739;30;20710;-90
2022/06/08 01:03:12;;;;;;;2.50;2.40;;;;;;;15.01;100.00;99007.13;4705701;30;20233;-90
2022/06/08 01:05:57;;;;;;;2.40;2.30;;;;;;;15.04;100.00;99009.28;4720940;30;20247;-90
2022/06/08 01:08:46;;;;;;;2.40;2.23;;;;;;;15.04;100.00;99006.59;4708535;30;20245;-90
2022/06/08 01:11:29;;;;;;;2.60;2.40;;;;;;;15.05;100.00;99009.03;4720942;30;20248;-91
2022/06/08 01:13:59;;;;;;;2.40;2.30;;;;;;;15.08;100.00;99005.78;4721199;30;20239;-90
2022/06/08 01:16:27;;;;;;;2.60;2.40;;;;;;;15.08;100.00;99003.09;4719913;30;20253;-91
2022/06/08 01:18:55;;;;;;;2.67;2.47;;;;;;;15.02;100.00;98997.97;4708555;30;20244;-90
2022/06/08 01:21:27;;;;;;;2.37;2.17;;;;;;;15.07;100.00;98995.28;4739957;30;20245;-90
2022/06/08 01:24:07;;;;;;;2.43;2.30;;;;;;;14.97;100.00;98998.75;4733993;30;20241;-90
2022/06/08 01:27:02;;;;;;;2.37;2.27;;;;;;;14.95;100.00;98992.81;4735600;30;20287;-90
2022/06/08 01:29:52;;;;;;;2.60;2.40;;;;;;;14.98;100.00;98993.06;4728227;30;20722;-90
2022/06/08 01:32:36;;;;;;;2.60;2.40;;;;;;;14.89;100.00;98989.25;4726767;30;20272;-90
2022/06/08 01:35:15;;;;;;;2.33;2.23;;;;;;;14.87;100.00;98980.63;4728986;30;20608;-90
2022/06/08 01:37:48;;;;;;;2.60;2.50;;;;;;;14.85;100.00;98979.25;4726815;30;20256;-90
2022/06/08 01:40:33;;;;;;;2.47;2.30;;;;;;;14.85;100.00;98974.69;4724077;30;20340;-90
2022/06/08 01:43:25;;;;;;;2.53;2.33;;;;;;;14.96;100.00;98968.28;4736135;30;20713;-90
2022/06/08 01:46:02;;;;;;;2.60;2.40;;;;;;;14.91;100.00;98957.47;4728755;30;20320;-90
2022/06/08 01:48:47;;;;;;;2.60;2.40;;;;;;;14.78;100.00;98959.84;4719773;30;20252;-90
2022/06/08 01:51:53;;;;;;;2.63;2.43;;;;;;;14.73;100.00;98949.84;4733995;30;20623;-90
2022/06/08 01:54:42;;;;;;;2.80;2.60;;;;;;;14.67;100.00;98944.66;4708358;30;20245;-90
2022/06/08 01:57:29;;;;;;;2.97;2.77;;;;;;;14.70;100.00;98939.56;4732955;30;20273;-91
2022/06/08 02:00:08;;;;;;;2.60;2.40;;;;;;;14.75;100.00;98928.78;4707020;30;20248;-90
2022/06/08 02:03:00;;;;;;;2.60;2.40;;;;;;;14.74;100.00;98927.19;4725544;30;20258;-89
2022/06/08 02:12:02;;;;;;;3.40;2.53;;;;;;;14.66;100.00;98911.50;4808555;24;20251;-89
2022/06/08 02:15:00;;;;;;;2.77;2.57;;;;;;;14.60;100.00;98915.28;4754791;30;20262;-92
2022/06/08 02:17:41;;;;;;;2.70;2.50;;;;;;;14.52;100.00;98905.78;4742695;30;20270;-90
2022/06/08 02:20:18;;;;;;;2.70;2.47;;;;;;;14.54;100.00;98911.72;4739599;30;20243;-90
2022/06/08 02:22:52;;;;;;;2.53;2.33;;;;;;;14.59;100.00;98915.53;4725661;30;20230;-92
2022/06/08 02:25:47;;;;;;;2.90;2.27;;;;;;;14.75;100.00;98922.59;4728082;30;20242;-91
2022/06/08 02:28:17;;;;;;;3.00;2.77;;;;;;;14.63;100.00;98912.03;4751239;30;20231;-86
2022/06/08 02:30:50;;;;;;;2.90;2.70;;;;;;;14.52;100.00;98913.88;4756250;30;20242;-89
2022/06/08 02:36:33;;;;;;;2.70;2.50;;;;;;;14.47;100.00;98919.22;4761026;30;20293;-89
2022/06/08 02:39:14;;;;;;;4.07;2.83;;;;;;;14.55;100.00;98923.34;4732508;30;20223;-89
2022/06/08 02:41:43;;;;;;;3.13;2.83;;;;;;;14.48;100.00;98926.25;4729390;30;20243;-89
2022/06/08 02:44:14;;;;;;;2.73;2.53;;;;;;;14.50;100.00;98931.38;4756661;30;20235;-90
2022/06/08 02:46:48;;;;;;;2.83;2.63;;;;;;;14.52;100.00;98924.66;4762220;30;20235;-90
2022/06/08 02:49:17;;;;;;;3.13;2.93;;;;;;;14.51;100.00;98922.22;4741232;30;20288;-89
2022/06/08 02:51:47;;;;;;;3.13;2.83;;;;;;;14.52;100.00;98929.22;4746305;30;20242;-88
2022/06/08 02:54:24;;;;;;;3.70;2.50;;;;;;;14.50;100.00;98910.63;4741073;30;20244;-90
2022/06/08 02:57:26;;;;;;;3.00;2.80;;;;;;;14.51;100.00;98922.22;4728614;30;20228;-90
2022/06/08 03:00:10;;;;;;;5.33;2.90;;;;;;;14.58;100.00;98916.59;4732198;30;20297;-93
2022/06/08 03:02:44;;;;;;;2.80;2.60;;;;;;;14.53;100.00;98925.47;4742983;30;20243;-90
2022/06/08 03:05:22;;;;;;;2.63;2.53;;;;;;;14.61;100.00;98927.66;4754402;30;20245;-92
2022/06/08 03:07:55;;;;;;;2.93;2.70;;;;;;;14.58;100.00;98928.19;4746124;30;20256;-92
2022/06/08 03:10:25;;;;;;;2.47;2.37;;;;;;;14.61;100.00;98932.22;4741660;30;20246;-88
2022/06/08 03:12:59;;;;;;;2.90;2.63;;;;;;;14.58;100.00;98932.75;4729877;30;20239;-90
2022/06/08 03:15:27;;;;;;;2.97;2.77;;;;;;;14.65;100.00;98930.66;4742832;30;20239;-88
2022/06/08 03:17:55;;;;;;;2.73;2.53;;;;;;;14.59;100.00;98937.91;4772122;30;20578;-87
2022/06/08 03:20:23;;;;;;;2.70;2.50;;;;;;;14.66;100.00;98943.03;4745490;30;20244;-87
2022/06/08 03:22:51;;;;;;;3.37;3.07;;;;;;;14.72;100.00;98944.69;4750024;30;20312;-86
2022/06/08 03:25:18;;;;;;;3.10;2.90;;;;;;;14.85;100.00;98949.59;4731362;30;20283;-87
2022/06/08 03:27:46;;;;;;;3.20;2.90;;;;;;;14.76;100.00;98940.41;4746920;30;20243;-87
2022/06/08 03:30:15;;;;;;;3.00;2.80;;;;;;;14.72;100.00;98945.50;4747425;30;20269;-86
2022/06/08 03:32:42;;;;;;;2.90;2.70;;;;;;;14.77;100.00;98952.81;4730790;30;20243;-92
2022/06/08 03:35:11;;;;;;;4.13;2.90;;;;;;;14.86;100.00;98956.63;4744917;30;20285;-91
2022/06/08 03:37:40;;;;;;;4.33;3.03;;;;;;;14.90;100.00;98955.84;4747356;30;20246;-92
2022/06/08 03:40:08;;;;;;;3.20;2.60;;;;;;;14.97;100.00;98952.91;4766154;30;20247;-91
2022/06/08 03:42:35;;;;;;;3.23;2.70;;;;;;;15.07;100.00;98963.69;4732514;30;20235;-92
2022/06/08 03:45:02;;;;;;;2.90;2.70;;;;;;;15.07;100.00;98955.59;4746772;30;20267;-92
2022/06/08 03:47:34;;;;;;;3.10;2.90;;;;;;;15.17;100.00;98963.75;4732524;30;20235;-92
2022/06/08 03:50:04;;;;;;;2.93;2.73;;;;;;;15.22;100.00;98963.75;4767023;30;20254;-92
2022/06/08 03:52:33;;;;;;;2.90;2.70;;;;;;;15.29;100.00;98964.34;4745588;30;20232;-92
2022/06/08 03:55:03;;;;;;;4.40;2.87;;;;;;;15.35;100.00;98959.75;4732668;30;20242;-92
2022/06/08 03:57:30;;;;;;;2.77;2.57;;;;;;;15.36;100.00;98964.88;4733113;30;20239;-92
2022/06/08 04:00:05;;;;;;;3.67;2.80;;;;;;;15.33;100.00;98951.09;4733326;30;20244;-92
2022/06/08 04:02:44;;;;;;;2.90;2.70;;;;;;;15.38;100.00;98953.81;4749713;30;20259;-92
2022/06/08 04:05:12;;;;;;;2.57;2.43;;;;;;;15.47;100.00;98954.91;4746372;30;20270;-92
2022/06/08 04:07:40;;;;;;;2.70;2.50;;;;;;;15.52;100.00;98954.16;4751495;30;20255;-92
2022/06/08 04:10:07;;;;;;;3.17;2.70;;;;;;;15.58;100.00;98951.19;4736258;30;20756;-92
2022/06/08 04:12:35;;;;;;;4.47;2.57;;;;;;;15.70;100.00;98945.53;4746999;30;20235;-93
2022/06/08 04:15:02;;;;;;;3.10;2.57;;;;;;;15.73;100.00;98943.09;4748724;30;20239;-93
2022/06/08 04:17:29;;;;;;;4.10;2.90;;;;;;;15.80;100.00;98946.34;4746893;30;20330;-93
2022/06/08 04:19:56;;;;;;;2.60;2.40;;;;;;;15.81;100.00;98941.75;4741693;30;20246;-93
2022/06/08 04:22:31;;;;;;;2.90;2.70;;;;;;;15.84;100.00;98931.22;4763463;30;20255;-92
2022/06/08 04:25:00;;;;;;;3.30;2.70;;;;;;;15.89;100.00;98933.09;4736761;30;20281;-92
2022/06/08 04:27:28;;;;;;;3.40;2.40;;;;;;;15.98;100.00;98936.88;4733203;30;20300;-92
2022/06/08 04:29:55;;;;;;;2.70;2.50;;;;;;;16.04;100.00;98938.50;4731128;30;20604;-92
2022/06/08 04:32:23;;;;;;;2.97;2.67;;;;;;;16.21;100.00;98925.50;4756753;30;20291;-91
2022/06/08 04:34:50;;;;;;;3.00;2.60;;;;;;;16.41;100.00;98930.06;4737865;30;20240;-91
2022/06/08 04:37:19;;;;;;;2.90;2.60;;;;;;;16.49;100.00;98923.28;4750169;30;20236;-91
2022/06/08 04:39:49;;;;;;;2.70;2.50;;;;;;;16.61;100.00;98929.25;4728337;30;20603;-92
2022/06/08 04:42:22;;;;;;;3.23;2.53;;;;;;;16.66;100.00;98930.00;4748028;30;20233;-89
2022/06/08 04:44:51;;;;;;;2.73;2.53;;;;;;;16.68;100.00;98930.56;4753686;30;20244;-91
2022/06/08 04:47:19;;;;;;;2.63;2.40;;;;;;;16.76;100.00;98931.88;4747351;30;20251;-91
2022/06/08 04:49:48;;;;;;;3.37;2.43;;;;;;;16.81;100.00;98929.13;4727467;30;20235;-89
2022/06/08 04:52:16;;;;;;;2.90;2.70;;;;;;;16.87;100.00;98935.34;4766132;29;20239;-89
2022/06/08 04:54:43;;;;;;;3.00;2.70;;;;;;;17.00;100.00;98937.44;4732857;30;20827;-89
2022/06/08 04:57:13;;;;;;;2.80;2.60;;;;;;;17.00;100.00;98940.16;4733183;30;20240;-89
2022/06/08 04:59:40;;;;;;;3.10;2.90;;;;;;;17.13;100.00;98940.34;4732962;30;20239;-89
2022/06/08 05:02:42;;;;;;;3.23;2.93;;;;;;;17.21;100.00;98946.28;4746830;30;20289;-89
2022/06/08 05:05:04;;;;;;;3.10;2.90;;;;;;;17.35;100.00;98942.69;4762681;30;20261;-91
2022/06/08 05:07:33;;;;;;;3.20;2.90;;;;;;;17.45;100.00;98944.53;4741364;30;20246;-91
2022/06/08 05:10:01;;;;;;;3.20;2.90;;;;;;;17.54;100.00;98940.91;4747048;30;20248;-89
2022/06/08 05:12:28;;;;;;;3.43;3.13;;;;;;;17.65;100.00;98936.28;4736986;30;20231;-91
2022/06/08 05:14:55;;;;;;;3.77;3.00;;;;;;;17.72;100.00;98936.78;4752203;30;20232;-91
2022/06/08 05:17:22;;;;;;;3.67;3.30;;;;;;;17.86;100.00;98942.34;4759295;30;20255;-90
2022/06/08 05:19:49;;;;;;;3.30;3.00;;;;;;;18.03;100.00;98948.97;4726240;30;20227;-90
2022/06/08 05:22:16;;;;;;;4.00;3.30;;;;;;;18.15;100.00;98959.44;4731627;29;20274;-90
2022/06/08 05:24:43;;;;;;;3.90;3.20;;;;;;;18.32;100.00;98956.31;4748024;30;20247;-90
2022/06/08 05:27:10;;;;;;;3.60;3.27;;;;;;;18.47;100.00;98948.03;4725230;30;20245;-90
2022/06/08 05:29:38;;;;;;;3.30;3.00;;;;;;;18.69;100.00;98959.19;4741950;30;20234;-90
2022/06/08 05:32:05;;;;;;;3.23;3.03;;;;;;;18.88;100.00;98962.78;4742407;30;20776;-90
2022/06/08 05:34:34;;;;;;;4.80;3.50;;;;;;;18.95;100.00;98967.84;4725867;30;20249;-90
2022/06/08 05:37:01;;;;;;;3.70;3.40;;;;;;;19.05;100.00;98965.00;4748671;30;20250;-90
2022/06/08 05:39:28;;;;;;;4.83;3.40;;;;;;;19.20;100.00;98967.53;4740274;30;20250;-89
2022/06/08 05:41:56;;;;;;;4.37;3.83;;;;;;;19.29;100.00;98967.69;4726795;30;20238;-89
2022/06/08 05:44:23;;;;;;;4.30;4.00;;;;;;;19.49;100.00;98955.75;4747962;30;20728;-89
2022/06/08 05:46:54;;;;;;;4.10;3.70;;;;;;;19.79;100.00;98958.00;4741974;30;20242;-89
2022/06/08 05:49:21;;;;;;;4.30;3.90;;;;;;;20.16;100.00;98947.06;4743815;30;20247;-89
2022/06/08 05:51:53;;;;;;;5.27;4.27;;;;;;;20.47;100.00;98941.94;4725818;30;20235;-89
2022/06/08 05:54:24;;;;;;;4.70;4.30;;;;;;;20.91;100.00;98937.78;4726380;30;20256;-89
2022/06/08 05:56:51;;;;;;;4.97;4.57;;;;;;;21.31;100.00;98941.59;4746993;30;20237;-88
2022/06/08 05:59:21;;;;;;;5.27;4.77;;;;;;;21.38;100.00;98939.25;4727493;30;20244;-88
2022/06/08 06:01:48;;;;;;;4.43;4.03;;;;;;;21.57;100.00;98930.91;4746880;30;20312;-89
2022/06/08 06:04:15;;;;;;;4.70;4.30;;;;;;;21.58;100.00;98927.09;4751818;30;20240;-88
2022/06/08 06:06:46;;;;;;;4.87;4.37;;;;;;;21.72;100.00;98936.84;4731379;30;20286;-88
2022/06/08 06:09:17;;;;;;;4.30;3.90;;;;;;;21.62;100.00;98934.34;4740662;30;20237;-88
2022/06/08 06:11:45;;;;;;;5.77;4.00;;;;;;;21.63;100.00;98927.78;4744402;30;20249;-89
2022/06/08 06:14:13;;;;;;;4.60;4.03;;;;;;;21.94;100.00;98927.88;4744157;30;20270;-91
2022/06/08 06:16:44;;;;;;;4.33;3.90;;;;;;;22.22;100.00;98928.50;4739931;30;20236;-96
2022/06/08 06:19:12;;;;;;;3.87;3.57;;;;;;;22.25;100.00;98934.19;4742102;30;20306;-95
2022/06/08 06:22:10;;;;;;;5.57;3.50;;;;;;;22.29;100.00;98932.44;4759175;30;20238;-94
2022/06/08 06:24:56;;;;;;;4.17;3.20;;;;;;;22.27;100.00;98939.31;4759805;30;20244;-95
2022/06/08 06:27:42;;;;;;;3.57;3.27;;;;;;;22.27;100.00;98945.56;4745883;30;20730;-94
2022/06/08 06:30:39;;;;;;;4.60;3.03;;;;;;;22.00;100.00;98945.72;4737850;30;20245;-95
2022/06/08 06:33:26;;;;;;;3.33;3.13;;;;;;;21.94;100.00;98947.75;4748171;30;20259;-94
2022/06/08 06:35:53;;;;;;;4.80;3.30;;;;;;;21.94;100.00;98941.50;4726719;30;20322;-95
2022/06/08 06:38:20;;;;;;;3.47;3.10;;;;;;;21.66;100.00;98939.97;4726512;30;20269;-94
2022/06/08 06:40:48;;;;;;;4.33;3.53;;;;;;;21.83;100.00;98951.84;4727074;30;20249;-96
2022/06/08 06:43:17;;;;;;;3.03;2.83;;;;;;;21.85;100.00;98933.22;4741482;30;20237;-94
2022/06/08 06:45:44;;;;;;;3.37;3.07;;;;;;;22.07;100.00;98932.44;4745719;30;20732;-94
2022/06/08 06:48:31;;;;;;;3.17;2.97;;;;;;;21.68;100.00;98926.84;4743378;30;20236;-94
2022/06/08 06:51:03;;;;;;;3.07;2.60;;;;;;;21.97;100.00;98937.38;4731065;30;20723;-94
2022/06/08 06:53:31;;;;;;;3.10;2.80;;;;;;;22.08;100.00;98925.88;4745701;30;20241;-94
2022/06/08 06:55:58;;;;;;;2.97;2.77;;;;;;;22.24;100.00;98929.03;4744233;30;20238;-93
2022/06/08 06:58:34;;;;;;;2.80;2.60;;;;;;;21.97;100.00;98921.81;4745012;30;20274;-95
2022/06/08 07:01:04;;;;;;;3.20;2.70;;;;;;;21.72;100.00;98917.75;4744218;30;20316;-94
2022/06/08 07:03:33;;;;;;;2.90;2.70;;;;;;;21.58;100.00;98916.19;4729008;30;20265;-95
2022/06/08 07:06:00;;;;;;;3.20;2.60;;;;;;;21.39;100.00;98914.44;4743267;30;20329;-94
2022/06/08 07:08:27;;;;;;;2.90;2.70;;;;;;;20.86;100.00;98913.38;4729433;30;20241;-94
2022/06/08 07:13:43;;;;;;;3.83;2.87;;;;;;;20.89;100.00;98910.06;4744927;30;20232;-94
2022/06/08 07:16:10;;;;;;;3.23;2.53;;;;;;;20.80;100.00;98904.53;4768772;30;20237;-95
2022/06/08 07:18:38;;;;;;;2.97;2.70;;;;;;;20.88;100.00;98911.19;4752346;30;20425;-94
2022/06/08 07:21:06;;;;;;;3.93;2.40;;;;;;;20.99;100.00;98910.66;4753218;30;20680;-95
2022/06/08 07:23:33;;;;;;;3.20;2.90;;;;;;;20.85;100.00;98909.06;4765664;30;20728;-94
2022/06/08 07:26:06;;;;;;;2.97;2.60;;;;;;;20.85;100.00;98906.34;4742112;30;20254;-95
2022/06/08 07:28:33;;;;;;;3.10;2.80;;;;;;;20.67;100.00;98908.84;4754251;30;20233;-96
2022/06/08 07:31:00;;;;;;;2.40;2.20;;;;;;;20.85;100.00;98900.91;4734891;30;20238;-94
2022/06/08 07:33:27;;;;;;;2.80;2.60;;;;;;;20.94;100.00;98913.50;4751107;30;20238;-96
2022/06/08 07:35:54;;;;;;;3.07;2.77;;;;;;;20.92;100.00;98901.28;4737769;30;20261;-96
2022/06/08 07:38:22;;;;;;;2.70;2.50;;;;;;;21.39;100.00;98905.44;4749980;30;20246;-95
2022/06/08 07:40:49;;;;;;;3.00;2.70;;;;;;;21.47;100.00;98897.34;4750659;30;20240;-95
2022/06/08 07:43:16;;;;;;;2.80;2.60;;;;;;;21.74;100.00;98907.31;4747588;30;20249;-94
2022/06/08 07:45:43;;;;;;;4.03;2.90;;;;;;;21.72;100.00;98906.03;4746210;30;20728;-95
2022/06/08 07:50:55;;;;;;;2.80;2.60;;;;;;;21.99;100.00;98902.38;4753731;30;20244;-95
2022/06/08 07:53:22;;;;;;;2.80;2.60;;;;;;;22.15;100.00;98900.88;4743906;30;20737;-96
2022/06/08 07:55:49;;;;;;;3.50;3.20;;;;;;;22.33;100.00;98900.66;4767810;30;20268;-95
2022/06/08 07:58:16;;;;;;;4.13;2.70;;;;;;;22.29;100.00;98905.16;4738111;30;20716;-94
2022/06/08 08:00:46;;;;;;;5.07;2.70;;;;;;;22.23;100.00;98898.19;4735217;30;20262;-94
2022/06/08 08:03:17;;;;;;;3.00;2.40;;;;;;;22.42;100.00;98897.97;4749289;30;20241;-95
2022/06/08 08:05:45;;;;;;;2.90;2.70;;;;;;;22.64;100.00;98895.16;4733493;30;20237;-95
2022/06/08 08:08:17;;;;;;;3.00;2.70;;;;;;;22.76;100.00;98887.22;4738458;30;20239;-94
2022/06/08 08:10:44;;;;;;;2.90;2.70;;;;;;;22.60;100.00;98883.25;4749850;30;20250;-95
2022/06/08 08:13:12;;;;;;;3.03;2.83;;;;;;;22.91;100.00;98885.16;4745614;30;20235;-95
2022/06/08 08:15:40;;;;;;;2.80;2.60;;;;;;;23.39;100.00;98883.09;4733424;30;20247;-93
2022/06/08 08:18:09;;;;;;;3.97;3.00;;;;;;;23.62;100.00;98883.78;4742063;29;20338;-92
2022/06/08 08:20:36;;;;;;;2.93;2.73;;;;;;;23.90;100.00;98893.22;4746819;30;20236;-93
2022/06/08 08:23:04;;;;;;;2.80;2.50;;;;;;;23.70;100.00;98882.97;4733753;30;20246;-95
2022/06/08 08:25:31;;;;;;;3.20;2.90;;;;;;;23.98;98.62;98886.16;4741458;30;20228;-94
2022/06/08 08:27:58;;;;;;;3.40;2.67;;;;;;;23.63;99.88;98880.72;4746575;30;20790;-94
2022/06/08 08:30:27;;;;;;;3.05;2.70;;;;;;;23.86;98.86;98883.25;4746960;30;20236;-95
2022/06/08 08:32:57;;;;;;;3.00;2.80;;;;;;;24.19;99.46;98884.34;4755660;30;20232;-95
2022/06/08 08:35:24;;;;;;;3.22;2.88;;;;;;;24.21;98.74;98895.78;4750536;30;20242;-94
2022/06/08 08:37:53;;;;;;;2.80;2.60;;;;;;;24.31;99.08;98894.63;4731882;30;20240;-94
2022/06/08 08:40:29;;;;;;;3.95;2.78;;;;;;;24.57;96.03;98895.31;4732520;30;20250;-93
2022/06/08 08:42:57;;;;;;;3.75;2.60;;;;;;;24.72;96.87;98896.69;4762211;30;20252;-96
2022/06/08 08:45:24;;;;;;;3.47;2.90;;;;;;;24.77;95.49;98883.63;4734277;30;20260;-95
2022/06/08 08:48:15;;;;;;;3.00;2.80;;;;;;;25.09;89.94;98881.34;4744411;30;20236;-94
2022/06/08 08:50:55;;;;;;;3.50;2.70;;;;;;;24.81;85.19;98865.38;4748282;30;20256;-95
2022/06/08 08:53:24;;;;;;;3.25;2.30;;;;;;;24.80;87.52;98860.22;4744114;30;20279;-92
2022/06/08 08:56:00;;;;;;;2.92;2.50;;;;;;;24.86;85.35;98870.69;4748026;30;20244;-92
2022/06/08 08:58:34;;;;;;;2.83;2.38;;;;;;;24.90;87.54;98863.41;4734876;30;20275;-92
2022/06/08 09:01:08;;;;;;;3.13;2.35;;;;;;;24.79;85.83;98858.63;4765108;30;20228;-93
2022/06/08 09:03:42;;;;;;;2.50;2.40;;;;;;;24.86;82.33;98864.38;4755399;30;20319;-92
2022/06/08 09:06:12;;;;;;;2.45;2.30;;;;;;;24.87;86.06;98857.81;4748577;30;20233;-95
2022/06/08 09:08:43;;;;;;;3.55;2.63;;;;;;;24.60;91.34;98855.50;4751860;30;20234;-93
2022/06/08 09:11:17;;;;;;;2.80;2.60;;;;;;;24.59;86.70;98851.19;4743396;30;20893;-95
2022/06/08 09:13:54;;;;;;;2.72;2.53;;;;;;;24.73;84.14;98849.78;4744850;30;20295;-96
2022/06/08 09:16:31;;;;;;;2.85;2.53;;;;;;;25.14;85.43;98846.34;4740915;24;20245;-82
2022/06/08 09:18:58;;;;;;;2.67;2.47;;;;;;;25.36;81.47;98837.75;4729379;30;20244;-82
2022/06/08 09:21:34;;;;;;;2.92;2.72;;;;;;;25.29;83.18;98829.25;4727704;30;20294;-83
2022/06/08 09:24:08;;;;;;;2.58;2.40;;;;;;;25.10;80.29;98822.66;4747214;30;20247;-82
2022/06/08 09:26:41;;;;;;;3.20;2.60;;;;;;;24.60;79.01;98822.63;4732906;30;20247;-83
2022/06/08 09:29:12;;;;;;;3.35;2.50;;;;;;;25.12;79.64;98815.72;4729259;30;20253;-82
2022/06/08 09:31:40;;;;;;;2.70;2.50;;;;;;;25.43;81.23;98818.00;4729591;30;20308;-82
2022/06/08 09:34:17;;;;;;;3.65;2.40;;;;;;;25.81;78.97;98815.88;4715473;30;20252;-81
2022/06/08 09:36:45;;;;;;;2.65;2.30;;;;;;;25.46;77.04;98816.53;4726120;30;20330;-82
2022/06/08 09:39:21;;;;;;;2.83;2.25;;;;;;;25.64;78.71;98816.06;4717024;30;20327;-82
2022/06/08 09:41:50;;;;;;;4.60;2.67;;;;;;;26.20;77.66;98822.72;4729215;30;20260;-82
2022/06/08 09:44:26;;;;;;;3.22;2.92;;;;;;;25.61;76.85;98808.53;4720550;30;20245;-82
2022/06/08 09:51:45;;;;;;;2.80;2.60;;;;;;;26.04;70.74;98807.22;4712529;30;20248;-82
2022/06/08 09:53:52;;;;;;;2.90;2.40;;;;;;;26.15;69.80;98808.41;4712776;30;20713;-82
2022/06/08 09:56:19;;;;;;;2.60;2.40;;;;;;;26.14;70.48;98802.09;4733948;30;20386;-81
2022/06/08 09:59:14;;;;;;;2.80;2.60;;;;;;;26.45;65.54;98787.84;4736236;30;20299;-82
2022/06/08 10:02:02;;;;;;;3.00;2.70;;;;;;;26.45;64.41;98776.88;4732382;30;20297;-82
2022/06/08 10:04:47;;;;;;;2.50;2.30;;;;;;;25.74;70.04;98779.19;4728563;30;20336;-82
2022/06/08 10:07:32;;;;;;;2.90;2.70;;;;;;;25.85;68.95;98774.84;4718631;30;20715;-82
2022/06/08 10:10:11;;;;;;;2.60;2.40;;;;;;;26.06;69.35;98772.03;4713616;30;20268;-82
2022/06/08 10:13:01;;;;;;;4.72;2.50;;;;;;;25.73;72.99;98769.34;4720234;30;20304;-82
2022/06/08 10:15:32;;;;;;;4.95;2.88;;;;;;;25.86;72.80;98774.50;4723711;30;20400;-82
2022/06/08 10:18:26;;;;;;;2.78;2.33;;;;;;;25.36;68.75;98771.97;4721774;30;20256;-81
2022/06/08 10:21:13;;;;;;;2.95;2.50;;;;;;;25.10;70.98;98773.34;4719782;30;20694;-82
2022/06/08 10:23:48;;;;;;;2.80;2.35;;;;;;;24.89;69.85;98767.84;4728072;30;20281;-82
2022/06/08 10:26:25;;;;;;;2.17;2.08;;;;;;;25.47;67.54;98763.31;4716935;30;20300;-81
2022/06/08 10:29:03;;;;;;;2.70;2.10;;;;;;;25.54;68.20;98766.28;4725447;30;20333;-81
2022/06/08 10:31:51;;;;;;;3.08;2.10;;;;;;;26.00;62.95;98768.69;4711445;30;20253;-81
2022/06/08 10:34:21;;;;;;;2.78;2.10;;;;;;;26.67;62.37;98767.34;4712397;30;20332;-81
2022/06/08 10:36:58;;;;;;;2.70;2.33;;;;;;;26.59;63.07;98765.53;4724468;30;20334;-82
2022/06/08 10:39:27;;;;;;;3.45;2.30;;;;;;;26.31;64.95;98756.41;4715171;30;20246;-81
2022/06/08 10:42:40;;;;;;;2.95;2.30;;;;;;;26.04;67.68;98769.63;4706175;30;20252;-81
2022/06/08 10:45:22;;;;;;;3.47;2.10;;;;;;;26.46;65.60;98766.66;4698183;30;20713;-81
2022/06/08 10:48:01;;;;;;;2.40;2.20;;;;;;;26.80;65.58;98759.84;4728619;30;20294;-81
2022/06/08 10:50:31;;;;;;;2.85;2.10;;;;;;;27.06;62.79;98765.78;4706434;30;20247;-80
2022/06/08 10:55:46;;;;;;;2.67;2.10;;;;;;;26.22;67.05;98762.78;4706630;30;20752;-81
2022/06/08 10:58:16;;;;;;;3.03;2.60;;;;;;;26.16;68.83;98768.84;4705964;30;20239;-81
2022/06/08 11:00:53;;;;;;;3.55;2.60;;;;;;;26.11;67.08;98760.81;4706347;30;20249;-81
2022/06/08 11:03:23;;;;;;;3.63;2.28;;;;;;;26.55;68.21;98768.13;4729389;30;21037;-81
2022/06/08 11:05:50;;;;;;;2.60;2.40;;;;;;;26.14;69.01;98755.44;4709861;30;20244;-81
2022/06/08 11:08:20;;;;;;;2.58;2.25;;;;;;;26.49;68.20;98764.03;4721448;30;20244;-81
2022/06/08 11:10:48;;;;;;;3.42;2.38;;;;;;;26.80;60.65;98763.41;4712436;30;20250;-81
2022/06/08 11:13:18;;;;;;;3.03;2.30;;;;;;;26.87;60.16;98758.16;4725397;30;20730;-82
2022/06/08 11:16:21;;;;;;;2.08;1.90;;;;;;;27.05;57.16;98759.47;4727091;30;20265;-81
2022/06/08 11:18:58;;;;;;;2.08;1.98;;;;;;;26.46;57.74;98766.66;4725021;30;20259;-81
2022/06/08 11:21:41;;;;;;;2.05;1.95;;;;;;;26.56;58.29;98758.75;4706979;30;20268;-81
2022/06/08 11:24:23;;;;;;;2.97;2.10;;;;;;;27.21;58.58;98756.78;4709949;30;20276;-81
2022/06/08 11:27:09;;;;;;;2.75;2.08;;;;;;;27.26;62.44;98759.28;4714703;30;20241;-81
2022/06/08 11:29:42;;;;;;;2.72;2.08;;;;;;;27.32;59.32;98754.31;4726508;30;20274;-80
2022/06/08 11:32:32;;;;;;;2.20;2.00;;;;;;;27.23;57.25;98756.44;4722665;30;20325;-81
2022/06/08 11:35:27;;;;;;;2.45;2.20;;;;;;;26.13;63.84;98764.03;4666397;30;20789;-81
2022/06/08 11:38:35;;;;;;;2.70;2.10;;;;;;;26.37;64.69;98758.56;4719923;30;20629;-80
2022/06/08 11:41:20;;;;;;;2.97;2.67;;;;;;;25.58;67.32;98757.06;4671777;30;20722;-81
2022/06/08 11:43:54;;;;;;;2.60;2.40;;;;;;;25.96;67.90;98764.22;4680741;30;20249;-80
2022/06/08 11:46:28;;;;;;;2.45;2.25;;;;;;;25.05;70.90;98757.91;4717081;30;21094;-82
2022/06/08 11:48:55;;;;;;;2.67;2.47;;;;;;;25.10;75.92;98751.41;4695558;30;20708;-81
2022/06/08 11:51:32;;;;;;;2.67;2.30;;;;;;;25.23;75.05;98753.06;4695267;30;20266;-81
2022/06/08 11:54:03;;;;;;;2.70;2.50;;;;;;;25.31;74.56;98752.16;4718230;30;20250;-81
2022/06/08 11:56:37;;;;;;;2.28;2.17;;;;;;;25.41;75.83;98758.03;4703697;30;20237;-81
2022/06/08 11:59:05;;;;;;;3.75;2.53;;;;;;;25.39;72.45;98743.84;4727319;30;20245;-80
2022/06/08 12:01:40;;;;;;;3.17;2.58;;;;;;;25.00;75.76;98736.19;4719569;30;20250;-82
2022/06/08 12:04:13;;;;;;;2.95;2.38;;;;;;;25.18;77.73;98739.56;4730693;30;20264;-81
2022/06/08 12:36:42;;;;;;;2.80;2.60;;;;;;;25.34;73.93;98707.63;4710771;30;20275;-81
2022/06/08 12:40:25;;;;;;;3.45;2.80;;;;;;;25.16;77.39;98698.78;4675464;30;21043;-82
2022/06/08 12:43:06;;;;;;;3.08;2.75;;;;;;;25.72;74.47;98701.91;4678401;30;20260;-81
2022/06/08 12:45:39;;;;;;;2.78;2.58;;;;;;;25.44;74.00;98699.78;4718702;30;20241;-82
2022/06/08 12:48:26;;;;;;;2.92;2.70;;;;;;;25.56;76.38;98701.78;4714286;30;20252;-81